Time,TemperatureF,DewpointF,PressureIn,WindDirection,WindDirectionDegrees,WindSpeedMPH,WindSpeedGustMPH,Humidity,HourlyPrecipIn,Conditions,Clouds,dailyrainin,SoftwareType,DateUTC
2013-06-18 00:02:00,69.1,66.4,29.89,West,275,5.0,6.0,91,0.00,,,0.00,Wunderground v.1.15,2013-06-18 05:02:00,
2013-06-18 00:08:00,68.9,66.2,29.89,West,279,6.0,8.0,91,0.00,,,0.00,Wunderground v.1.15,2013-06-18 05:08:00,
2013-06-18 00:13:00,68.8,66.1,29.89,WNW,288,6.0,8.0,91,0.00,,,0.00,Wunderground v.1.15,2013-06-18 05:13:00,
2013-06-18 00:19:00,68.5,66.1,29.89,WNW,288,5.0,8.0,92,0.00,,,0.00,Wunderground v.1.15,2013-06-18 05:19:00,
2013-06-18 00:24:00,68.4,66.0,29.90,WNW,288,4.0,6.0,92,0.00,,,0.00,Wunderground v.1.15,2013-06-18 05:24:00,
2013-06-18 00:30:00,68.3,65.9,29.90,WNW,288,4.0,5.0,92,0.00,,,0.00,Wunderground v.1.15,2013-06-18 05:30:00,
2013-06-18 00:36:00,68.2,65.8,29.90,WNW,293,5.0,11.0,92,0.00,,,0.00,Wunderground v.1.15,2013-06-18 05:36:00,
2013-06-18 00:42:00,68.0,65.6,29.90,WNW,293,5.0,11.0,92,0.00,,,0.00,Wunderground v.1.15,2013-06-18 05:42:00,
2013-06-18 00:48:00,68.0,65.6,29.90,WNW,293,5.0,11.0,92,0.00,,,0.00,Wunderground v.1.15,2013-06-18 05:48:00,
2013-06-18 00:53:00,68.0,65.6,29.90,WNW,296,5.0,11.0,92,0.00,,,0.00,Wunderground v.1.15,2013-06-18 05:53:00,
2013-06-18 00:58:00,68.0,65.6,29.90,WNW,286,6.0,11.0,92,0.00,,,0.00,Wunderground v.1.15,2013-06-18 05:58:00,
2013-06-18 01:04:00,67.9,65.5,29.90,WNW,287,6.0,11.0,92,0.00,,,0.00,Wunderground v.1.15,2013-06-18 06:04:00,
2013-06-18 01:10:00,67.8,65.4,29.90,WNW,286,6.0,11.0,92,0.00,,,0.00,Wunderground v.1.15,2013-06-18 06:10:00,
2013-06-18 01:15:00,67.7,65.3,29.90,WNW,286,6.0,11.0,92,0.00,,,0.00,Wunderground v.1.15,2013-06-18 06:15:00,
2013-06-18 01:21:00,67.6,65.5,29.90,WNW,288,6.0,8.0,93,0.00,,,0.00,Wunderground v.1.15,2013-06-18 06:21:00,
2013-06-18 01:26:00,67.6,65.5,29.90,WNW,286,6.0,11.0,93,0.00,,,0.00,Wunderground v.1.15,2013-06-18 06:26:00,
2013-06-18 01:32:00,67.5,65.4,29.90,WNW,299,6.0,11.0,93,0.00,,,0.00,Wunderground v.1.15,2013-06-18 06:32:00,
2013-06-18 01:37:00,67.4,65.3,29.90,WNW,294,7.0,11.0,93,0.00,,,0.00,Wunderground v.1.15,2013-06-18 06:37:00,
2013-06-18 01:43:00,67.4,65.3,29.90,WNW,292,7.0,11.0,93,0.00,,,0.00,Wunderground v.1.15,2013-06-18 06:43:00,
2013-06-18 01:49:00,67.4,65.3,29.89,WNW,301,7.0,11.0,93,0.00,,,0.00,Wunderground v.1.15,2013-06-18 06:49:00,
2013-06-18 01:55:00,67.4,65.3,29.89,WNW,301,8.0,11.0,93,0.00,,,0.00,Wunderground v.1.15,2013-06-18 06:55:00,
2013-06-18 02:01:00,67.5,65.4,29.89,WNW,297,8.0,11.0,93,0.00,,,0.00,Wunderground v.1.15,2013-06-18 07:01:00,
2013-06-18 02:06:00,67.5,65.4,29.89,WNW,298,8.0,11.0,93,0.00,,,0.00,Wunderground v.1.15,2013-06-18 07:06:00,
2013-06-18 02:12:00,67.4,65.6,29.88,WNW,301,7.0,11.0,94,0.00,,,0.00,Wunderground v.1.15,2013-06-18 07:12:00,
2013-06-18 02:18:00,67.4,65.6,29.89,WNW,302,7.0,11.0,94,0.00,,,0.00,Wunderground v.1.15,2013-06-18 07:18:00,
2013-06-18 02:23:00,67.3,65.5,29.89,WNW,297,7.0,11.0,94,0.00,,,0.00,Wunderground v.1.15,2013-06-18 07:23:00,
2013-06-18 02:29:00,67.3,65.5,29.89,WNW,300,6.0,11.0,94,0.00,,,0.00,Wunderground v.1.15,2013-06-18 07:29:00,
2013-06-18 02:34:00,67.3,65.5,29.89,WNW,299,6.0,11.0,94,0.00,,,0.00,Wunderground v.1.15,2013-06-18 07:34:00,
2013-06-18 02:40:00,67.4,65.6,29.89,WNW,297,7.0,11.0,94,0.00,,,0.00,Wunderground v.1.15,2013-06-18 07:40:00,
2013-06-18 02:45:00,67.4,65.6,29.89,WNW,299,7.0,11.0,94,0.00,,,0.00,Wunderground v.1.15,2013-06-18 07:45:00,
2013-06-18 02:50:00,67.4,65.6,29.89,WNW,297,7.0,11.0,94,0.00,,,0.00,Wunderground v.1.15,2013-06-18 07:50:00,
2013-06-18 02:56:00,67.4,65.6,29.89,WNW,299,7.0,11.0,94,0.00,,,0.00,Wunderground v.1.15,2013-06-18 07:56:00,
2013-06-18 03:01:00,67.5,65.7,29.89,WNW,298,7.0,11.0,94,0.00,,,0.00,Wunderground v.1.15,2013-06-18 08:01:00,
2013-06-18 03:07:00,67.5,65.7,29.89,WNW,296,7.0,11.0,94,0.00,,,0.00,Wunderground v.1.15,2013-06-18 08:07:00,
2013-06-18 03:12:00,67.5,65.7,29.90,WNW,296,6.0,11.0,94,0.00,,,0.00,Wunderground v.1.15,2013-06-18 08:12:00,
2013-06-18 03:17:00,67.5,66.0,29.89,WNW,296,6.0,11.0,95,0.00,,,0.00,Wunderground v.1.15,2013-06-18 08:17:00,
2013-06-18 03:23:00,67.4,65.9,29.89,WNW,296,6.0,11.0,95,0.00,,,0.00,Wunderground v.1.15,2013-06-18 08:23:00,
2013-06-18 03:28:00,67.4,65.9,29.88,WNW,296,6.0,11.0,95,0.00,,,0.00,Wunderground v.1.15,2013-06-18 08:28:00,
2013-06-18 03:34:00,67.4,65.9,29.89,WNW,303,5.0,11.0,95,0.00,,,0.00,Wunderground v.1.15,2013-06-18 08:34:00,
2013-06-18 03:39:00,67.4,65.9,29.89,NW,304,6.0,11.0,95,0.00,,,0.00,Wunderground v.1.15,2013-06-18 08:39:00,
2013-06-18 03:46:00,67.4,65.9,29.89,NW,319,6.0,11.0,95,0.00,,,0.00,Wunderground v.1.15,2013-06-18 08:46:00,
2013-06-18 04:00:00,67.5,66.0,29.90,NW,324,7.0,11.0,95,0.00,,,0.00,Wunderground v.1.15,2013-06-18 09:00:00,
2013-06-18 04:10:00,67.6,66.4,29.90,NW,317,6.0,11.0,96,0.00,,,0.00,Wunderground v.1.15,2013-06-18 09:10:00,
2013-06-18 04:15:00,67.6,66.4,29.90,NW,316,6.0,11.0,96,0.00,,,0.00,Wunderground v.1.15,2013-06-18 09:15:00,
2013-06-18 04:27:00,67.8,66.6,29.90,NW,309,5.0,11.0,96,0.00,,,0.00,Wunderground v.1.15,2013-06-18 09:27:00,
2013-06-18 04:32:00,67.9,66.7,29.90,NW,307,5.0,11.0,96,0.00,,,0.00,Wunderground v.1.15,2013-06-18 09:32:00,
2013-06-18 04:38:00,68.1,66.9,29.91,NW,311,5.0,11.0,96,0.00,,,0.00,Wunderground v.1.15,2013-06-18 09:38:00,
2013-06-18 04:43:00,68.3,67.1,29.91,NW,310,5.0,11.0,96,0.00,,,0.00,Wunderground v.1.15,2013-06-18 09:43:00,
2013-06-18 04:49:00,68.4,67.5,29.91,NW,318,6.0,11.0,97,0.00,,,0.00,Wunderground v.1.15,2013-06-18 09:49:00,
2013-06-18 04:54:00,68.6,67.7,29.92,NW,314,5.0,11.0,97,0.00,,,0.00,Wunderground v.1.15,2013-06-18 09:54:00,
2013-06-18 05:00:00,68.7,67.8,29.92,NW,314,6.0,6.0,97,0.00,,,0.00,Wunderground v.1.15,2013-06-18 10:00:00,
2013-06-18 05:05:00,68.8,67.9,29.91,NW,315,6.0,11.0,97,0.00,,,0.00,Wunderground v.1.15,2013-06-18 10:05:00,
2013-06-18 05:11:00,68.9,68.0,29.91,NW,321,4.0,11.0,97,0.00,,,0.00,Wunderground v.1.15,2013-06-18 10:11:00,
2013-06-18 05:19:00,68.9,68.0,29.91,NW,322,3.0,11.0,97,0.00,,,0.00,Wunderground v.1.15,2013-06-18 10:19:00,
2013-06-18 05:25:00,68.7,67.8,29.91,NW,322,2.0,11.0,97,0.00,,,0.00,Wunderground v.1.15,2013-06-18 10:25:00,
2013-06-18 05:31:00,68.7,67.8,29.91,NW,322,1.0,2.0,97,0.00,,,0.00,Wunderground v.1.15,2013-06-18 10:31:00,
2013-06-18 05:37:00,68.6,67.7,29.91,NW,322,1.0,11.0,97,0.00,,,0.00,Wunderground v.1.15,2013-06-18 10:37:00,
2013-06-18 05:42:00,68.6,67.7,29.92,NW,322,1.0,11.0,97,0.00,,,0.00,Wunderground v.1.15,2013-06-18 10:42:00,
2013-06-18 05:52:00,68.5,67.6,29.92,NW,322,1.0,11.0,97,0.00,,,0.00,Wunderground v.1.15,2013-06-18 10:52:00,
2013-06-18 05:58:00,68.5,67.6,29.92,NW,322,2.0,11.0,97,0.00,,,0.00,Wunderground v.1.15,2013-06-18 10:58:00,
2013-06-18 06:11:00,68.4,67.5,29.92,NW,322,2.0,11.0,97,0.00,,,0.01,Wunderground v.1.15,2013-06-18 11:11:00,
2013-06-18 06:16:00,68.4,67.5,29.92,NW,322,3.0,11.0,97,0.00,,,0.01,Wunderground v.1.15,2013-06-18 11:16:00,
2013-06-18 06:21:00,68.4,67.5,29.92,NW,322,3.0,11.0,97,0.00,,,0.01,Wunderground v.1.15,2013-06-18 11:21:00,
2013-06-18 06:27:00,68.6,67.7,29.92,NW,322,3.0,11.0,97,0.00,,,0.01,Wunderground v.1.15,2013-06-18 11:27:00,
2013-06-18 06:33:00,68.7,67.5,29.92,NW,322,2.0,11.0,96,0.00,,,0.01,Wunderground v.1.15,2013-06-18 11:33:00,
2013-06-18 06:39:00,68.8,67.6,29.92,NW,322,1.0,11.0,96,0.00,,,0.01,Wunderground v.1.15,2013-06-18 11:39:00,
2013-06-18 06:44:00,68.9,67.7,29.92,NW,322,1.0,11.0,96,0.00,,,0.01,Wunderground v.1.15,2013-06-18 11:44:00,
2013-06-18 06:50:00,69.1,68.2,29.92,NW,322,1.0,1.0,97,0.00,,,0.01,Wunderground v.1.15,2013-06-18 11:50:00,
2013-06-18 06:56:00,69.3,68.1,29.92,NW,322,1.0,11.0,96,0.00,,,0.01,Wunderground v.1.15,2013-06-18 11:56:00,
2013-06-18 07:01:00,69.4,68.2,29.92,NW,322,1.0,11.0,96,0.00,,,0.01,Wunderground v.1.15,2013-06-18 12:01:00,
2013-06-18 07:17:00,69.8,68.3,29.92,NW,322,2.0,11.0,95,0.00,,,0.01,Wunderground v.1.15,2013-06-18 12:17:00,
2013-06-18 07:22:00,70.1,68.3,29.92,NW,322,3.0,5.0,94,0.00,,,0.01,Wunderground v.1.15,2013-06-18 12:22:00,
2013-06-18 07:27:00,70.4,68.3,29.92,NW,322,3.0,11.0,93,0.00,,,0.01,Wunderground v.1.15,2013-06-18 12:27:00,
2013-06-18 07:33:00,70.9,68.5,29.92,NW,322,2.0,11.0,92,0.00,,,0.01,Wunderground v.1.15,2013-06-18 12:33:00,
2013-06-18 07:39:00,71.5,68.4,29.93,NW,322,1.0,11.0,90,0.00,,,0.01,Wunderground v.1.15,2013-06-18 12:39:00,
2013-06-18 07:44:00,71.9,68.2,29.93,NW,322,1.0,11.0,88,0.00,,,0.01,Wunderground v.1.15,2013-06-18 12:44:00,
2013-06-18 07:49:00,72.1,68.0,29.93,NW,322,2.0,11.0,87,0.00,,,0.01,Wunderground v.1.15,2013-06-18 12:49:00,
2013-06-18 07:55:00,72.6,68.2,29.93,NW,322,1.0,11.0,86,0.00,,,0.01,Wunderground v.1.15,2013-06-18 12:55:00,
2013-06-18 08:01:00,73.2,67.7,29.93,NE,50,1.0,11.0,83,0.00,,,0.01,Wunderground v.1.15,2013-06-18 13:01:00,
2013-06-18 08:07:00,73.7,67.9,29.93,NNW,339,1.0,11.0,82,0.00,,,0.01,Wunderground v.1.15,2013-06-18 13:07:00,
2013-06-18 08:13:00,73.9,67.0,29.93,NW,304,1.0,11.0,79,0.00,,,0.01,Wunderground v.1.15,2013-06-18 13:13:00,
2013-06-18 08:19:00,74.1,66.8,29.93,ENE,66,2.0,11.0,78,0.00,,,0.01,Wunderground v.1.15,2013-06-18 13:19:00,
2013-06-18 08:24:00,74.1,66.8,29.93,NNE,26,2.0,11.0,78,0.00,,,0.01,Wunderground v.1.15,2013-06-18 13:24:00,
2013-06-18 08:29:00,74.4,67.1,29.93,North,5,1.0,11.0,78,0.00,,,0.01,Wunderground v.1.15,2013-06-18 13:29:00,
2013-06-18 08:42:00,74.5,66.8,29.93,NNE,26,3.0,11.0,77,0.00,,,0.01,Wunderground v.1.15,2013-06-18 13:42:00,
2013-06-18 08:48:00,74.8,67.1,29.93,NE,49,3.0,11.0,77,0.00,,,0.01,Wunderground v.1.15,2013-06-18 13:48:00,
2013-06-18 08:54:00,75.2,66.7,29.93,NE,40,2.0,11.0,75,0.00,,,0.01,Wunderground v.1.15,2013-06-18 13:54:00,
2013-06-18 08:59:00,75.5,66.6,29.93,NE,45,1.0,11.0,74,0.00,,,0.01,Wunderground v.1.15,2013-06-18 13:59:00,
2013-06-18 09:05:00,75.7,66.0,29.93,NE,51,2.0,11.0,72,0.00,,,0.01,Wunderground v.1.15,2013-06-18 14:05:00,
2013-06-18 09:10:00,75.7,66.0,29.93,ENE,74,3.0,11.0,72,0.00,,,0.01,Wunderground v.1.15,2013-06-18 14:10:00,
2013-06-18 09:16:00,75.8,66.5,29.94,NE,40,3.0,11.0,73,0.00,,,0.01,Wunderground v.1.15,2013-06-18 14:16:00,
2013-06-18 09:21:00,76.1,66.4,29.94,NE,49,3.0,6.0,72,0.00,,,0.01,Wunderground v.1.15,2013-06-18 14:21:00,
2013-06-18 09:27:00,76.3,65.4,29.94,ENE,65,3.0,11.0,69,0.00,,,0.01,Wunderground v.1.15,2013-06-18 14:27:00,
2013-06-18 09:32:00,76.5,65.1,29.94,NE,55,4.0,11.0,68,0.00,,,0.01,Wunderground v.1.15,2013-06-18 14:32:00,
2013-06-18 09:38:00,76.7,65.3,29.94,ENE,57,4.0,11.0,68,0.00,,,0.01,Wunderground v.1.15,2013-06-18 14:38:00,
2013-06-18 09:43:00,77.0,64.8,29.94,NE,41,4.0,11.0,66,0.00,,,0.01,Wunderground v.1.15,2013-06-18 14:43:00,
2013-06-18 09:49:00,77.2,65.0,29.94,ENE,57,5.0,11.0,66,0.00,,,0.01,Wunderground v.1.15,2013-06-18 14:49:00,
2013-06-18 10:00:00,77.7,64.5,29.94,ENE,58,5.0,11.0,64,0.00,,,0.01,Wunderground v.1.15,2013-06-18 15:00:00,
2013-06-18 10:20:00,78.9,62.9,29.94,ENE,61,4.0,11.0,58,0.00,,,0.01,Wunderground v.1.15,2013-06-18 15:20:00,
2013-06-18 10:26:00,79.1,63.1,29.94,NE,40,5.0,11.0,58,0.00,,,0.01,Wunderground v.1.15,2013-06-18 15:26:00,
2013-06-18 10:32:00,79.3,62.7,29.94,NE,47,6.0,9.0,57,0.00,,,0.01,Wunderground v.1.15,2013-06-18 15:32:00,
2013-06-18 10:37:00,79.5,63.9,29.94,NE,55,6.0,11.0,59,0.00,,,0.01,Wunderground v.1.15,2013-06-18 15:37:00,
2013-06-18 10:43:00,79.9,63.8,29.95,ENE,71,6.0,11.0,58,0.00,,,0.01,Wunderground v.1.15,2013-06-18 15:43:00,
2013-06-18 10:48:00,80.0,64.4,29.95,NE,34,5.0,11.0,59,0.00,,,0.01,Wunderground v.1.15,2013-06-18 15:48:00,
2013-06-18 10:54:00,80.1,64.5,29.95,NE,50,5.0,11.0,59,0.00,,,0.01,Wunderground v.1.15,2013-06-18 15:54:00,
2013-06-18 10:59:00,80.5,62.8,29.94,ENE,69,5.0,11.0,55,0.00,,,0.01,Wunderground v.1.15,2013-06-18 15:59:00,
2013-06-18 11:05:00,80.8,63.1,29.94,ENE,77,3.0,11.0,55,0.00,,,0.01,Wunderground v.1.15,2013-06-18 16:05:00,
2013-06-18 11:10:00,81.1,63.4,29.95,NW,323,3.0,3.0,55,0.00,,,0.01,Wunderground v.1.15,2013-06-18 16:10:00,
2013-06-18 11:16:00,81.0,63.8,29.95,NNE,22,4.0,11.0,56,0.00,,,0.01,Wunderground v.1.15,2013-06-18 16:16:00,
2013-06-18 11:21:00,81.3,63.6,29.95,ENE,67,4.0,11.0,55,0.00,,,0.01,Wunderground v.1.15,2013-06-18 16:21:00,
2013-06-18 11:27:00,81.4,62.1,29.95,East,83,5.0,11.0,52,0.00,,,0.01,Wunderground v.1.15,2013-06-18 16:27:00,
2013-06-18 11:33:00,81.3,62.0,29.95,ENE,76,6.0,11.0,52,0.00,,,0.01,Wunderground v.1.15,2013-06-18 16:33:00,
2013-06-18 11:38:00,81.6,62.3,29.95,NE,49,4.0,11.0,52,0.00,,,0.01,Wunderground v.1.15,2013-06-18 16:38:00,
2013-06-18 11:44:00,82.3,63.5,29.95,NW,309,3.0,11.0,53,0.00,,,0.01,Wunderground v.1.15,2013-06-18 16:44:00,
2013-06-18 11:49:00,82.7,61.0,29.96,NE,51,4.0,11.0,48,0.00,,,0.01,Wunderground v.1.15,2013-06-18 16:49:00,
2013-06-18 11:55:00,82.6,60.3,29.95,NE,36,6.0,11.0,47,0.00,,,0.01,Wunderground v.1.15,2013-06-18 16:55:00,
2013-06-18 12:00:00,82.8,61.1,29.95,ENE,57,6.0,11.0,48,0.00,,,0.01,Wunderground v.1.15,2013-06-18 17:00:00,
2013-06-18 12:06:00,82.4,60.7,29.95,East,97,7.0,16.0,48,0.00,,,0.01,Wunderground v.1.15,2013-06-18 17:06:00,
2013-06-18 12:12:00,81.9,64.1,29.96,East,88,8.0,11.0,55,0.00,,,0.01,Wunderground v.1.15,2013-06-18 17:12:00,
2013-06-18 12:17:00,81.7,62.9,29.95,ENE,70,6.0,11.0,53,0.00,,,0.01,Wunderground v.1.15,2013-06-18 17:17:00,
2013-06-18 12:23:00,81.9,60.9,29.95,ENE,61,6.0,11.0,49,0.00,,,0.01,Wunderground v.1.15,2013-06-18 17:23:00,
2013-06-18 12:28:00,81.6,62.3,29.95,NE,51,6.0,11.0,52,0.00,,,0.01,Wunderground v.1.15,2013-06-18 17:28:00,
2013-06-18 12:34:00,81.2,61.4,29.95,ENE,67,6.0,11.0,51,0.00,,,0.01,Wunderground v.1.15,2013-06-18 17:34:00,
2013-06-18 12:39:00,80.9,61.6,29.95,ENE,77,6.0,11.0,52,0.00,,,0.01,Wunderground v.1.15,2013-06-18 17:39:00,
2013-06-18 12:45:00,80.6,61.3,29.95,ENE,76,6.0,11.0,52,0.00,,,0.01,Wunderground v.1.15,2013-06-18 17:45:00,
2013-06-18 12:50:00,80.6,60.8,29.95,ENE,59,5.0,5.0,51,0.00,,,0.01,Wunderground v.1.15,2013-06-18 17:50:00,
2013-06-18 12:56:00,80.3,60.0,29.95,ENE,59,4.0,11.0,50,0.00,,,0.01,Wunderground v.1.15,2013-06-18 17:56:00,
2013-06-18 13:04:00,80.1,63.0,29.94,ENE,68,4.0,11.0,56,0.00,,,0.01,Wunderground v.1.15,2013-06-18 18:04:00,
2013-06-18 13:09:00,80.1,61.4,29.94,ENE,70,4.0,11.0,53,0.00,,,0.01,Wunderground v.1.15,2013-06-18 18:09:00,
2013-06-18 13:21:00,79.6,62.0,29.95,NE,55,3.0,11.0,55,0.00,,,0.01,Wunderground v.1.15,2013-06-18 18:21:00,
2013-06-18 13:26:00,79.6,62.0,29.95,ENE,63,2.0,11.0,55,0.00,,,0.01,Wunderground v.1.15,2013-06-18 18:26:00,
2013-06-18 13:32:00,80.0,64.4,29.95,East,80,3.0,11.0,59,0.00,,,0.01,Wunderground v.1.15,2013-06-18 18:32:00,
2013-06-18 13:37:00,80.3,64.2,29.95,NE,53,4.0,11.0,58,0.00,,,0.01,Wunderground v.1.15,2013-06-18 18:37:00,
2013-06-18 13:43:00,80.7,65.0,29.94,ENE,76,5.0,11.0,59,0.00,,,0.01,Wunderground v.1.15,2013-06-18 18:43:00,
2013-06-18 13:48:00,81.1,63.9,29.94,East,86,5.0,11.0,56,0.00,,,0.01,Wunderground v.1.15,2013-06-18 18:48:00,
2013-06-18 13:54:00,81.5,61.6,29.94,NE,51,3.0,11.0,51,0.00,,,0.01,Wunderground v.1.15,2013-06-18 18:54:00,
2013-06-18 13:59:00,81.4,59.2,29.95,NE,55,2.0,11.0,47,0.00,,,0.01,Wunderground v.1.15,2013-06-18 18:59:00,
2013-06-18 14:05:00,81.6,61.7,29.95,NE,56,2.0,11.0,51,0.00,,,0.01,Wunderground v.1.15,2013-06-18 19:05:00,
2013-06-18 14:11:00,81.4,59.8,29.95,NE,51,3.0,11.0,48,0.00,,,0.01,Wunderground v.1.15,2013-06-18 19:11:00,
2013-06-18 14:17:00,80.9,61.6,29.95,ENE,69,3.0,11.0,52,0.00,,,0.01,Wunderground v.1.15,2013-06-18 19:17:00,
2013-06-18 14:23:00,80.7,63.0,29.95,ENE,59,2.0,11.0,55,0.00,,,0.01,Wunderground v.1.15,2013-06-18 19:23:00,
2013-06-18 14:28:00,80.5,61.8,29.95,NNE,30,1.0,11.0,53,0.00,,,0.01,Wunderground v.1.15,2013-06-18 19:28:00,
2013-06-18 14:33:00,80.7,62.5,29.95,ENE,68,1.0,11.0,54,0.00,,,0.01,Wunderground v.1.15,2013-06-18 19:33:00,
2013-06-18 14:39:00,80.7,62.5,29.95,East,86,2.0,11.0,54,0.00,,,0.01,Wunderground v.1.15,2013-06-18 19:39:00,
2013-06-18 14:45:00,80.6,62.9,29.95,NE,44,1.0,11.0,55,0.00,,,0.01,Wunderground v.1.15,2013-06-18 19:45:00,
2013-06-18 14:50:00,80.2,61.5,29.95,NE,40,2.0,11.0,53,0.00,,,0.01,Wunderground v.1.15,2013-06-18 19:50:00,
2013-06-18 14:56:00,79.9,62.3,29.95,NE,49,3.0,11.0,55,0.00,,,0.01,Wunderground v.1.15,2013-06-18 19:56:00,
2013-06-18 15:08:00,79.7,62.1,29.95,NE,46,1.0,11.0,55,0.00,,,0.01,Wunderground v.1.15,2013-06-18 20:08:00,
2013-06-18 15:20:00,79.8,63.7,29.95,ENE,63,2.0,11.0,58,0.00,,,0.01,Wunderground v.1.15,2013-06-18 20:20:00,
2013-06-18 15:31:00,81.2,60.8,29.95,NE,55,2.0,11.0,50,0.00,,,0.01,Wunderground v.1.15,2013-06-18 20:31:00,
2013-06-18 15:37:00,81.4,61.0,29.95,ENE,63,1.0,11.0,50,0.00,,,0.01,Wunderground v.1.15,2013-06-18 20:37:00,
2013-06-18 15:43:00,81.5,64.3,29.94,WNW,286,2.0,11.0,56,0.00,,,0.01,Wunderground v.1.15,2013-06-18 20:43:00,
2013-06-18 15:48:00,81.6,62.3,29.94,East,88,3.0,11.0,52,0.00,,,0.01,Wunderground v.1.15,2013-06-18 20:48:00,
2013-06-18 15:54:00,81.5,62.7,29.94,ENE,59,3.0,11.0,53,0.00,,,0.01,Wunderground v.1.15,2013-06-18 20:54:00,
2013-06-18 15:59:00,81.2,62.4,29.94,East,82,2.0,11.0,53,0.00,,,0.01,Wunderground v.1.15,2013-06-18 20:59:00,
2013-06-18 16:05:00,80.8,62.6,29.94,NW,309,3.0,11.0,54,0.00,,,0.01,Wunderground v.1.15,2013-06-18 21:05:00,
2013-06-18 16:10:00,81.4,63.2,29.94,ENE,68,2.0,11.0,54,0.00,,,0.01,Wunderground v.1.15,2013-06-18 21:10:00,
2013-06-18 16:16:00,82.0,63.7,29.94,NE,51,1.0,11.0,54,0.00,,,0.01,Wunderground v.1.15,2013-06-18 21:16:00,
2013-06-18 16:21:00,82.3,64.0,29.94,NW,323,1.0,11.0,54,0.00,,,0.01,Wunderground v.1.15,2013-06-18 21:21:00,
2013-06-18 16:27:00,82.0,63.7,29.93,ENE,71,2.0,11.0,54,0.00,,,0.01,Wunderground v.1.15,2013-06-18 21:27:00,
2013-06-18 16:32:00,81.5,62.7,29.93,ENE,66,2.0,11.0,53,0.00,,,0.01,Wunderground v.1.15,2013-06-18 21:32:00,
2013-06-18 16:39:00,81.8,63.0,29.93,NW,318,2.0,11.0,53,0.00,,,0.01,Wunderground v.1.15,2013-06-18 21:39:00,
2013-06-18 16:58:00,81.6,62.3,29.93,WNW,302,3.0,11.0,52,0.00,,,0.01,Wunderground v.1.15,2013-06-18 21:58:00,
2013-06-18 17:12:00,81.5,62.2,29.92,ENE,63,3.0,11.0,52,0.00,,,0.01,Wunderground v.1.15,2013-06-18 22:12:00,
2013-06-18 17:21:00,81.8,62.5,29.92,NW,306,3.0,11.0,52,0.00,,,0.01,Wunderground v.1.15,2013-06-18 22:21:00,
2013-06-18 17:35:00,82.1,63.3,29.92,ENE,61,2.0,11.0,53,0.00,,,0.01,Wunderground v.1.15,2013-06-18 22:35:00,
2013-06-18 17:43:00,81.8,63.0,29.92,North,5,3.0,11.0,53,0.00,,,0.01,Wunderground v.1.15,2013-06-18 22:43:00,
2013-06-18 17:48:00,82.1,63.8,29.92,West,263,2.0,11.0,54,0.00,,,0.01,Wunderground v.1.15,2013-06-18 22:48:00,
2013-06-18 17:56:00,82.0,62.6,29.92,NW,322,2.0,11.0,52,0.00,,,0.01,Wunderground v.1.15,2013-06-18 22:56:00,
2013-06-18 18:01:00,82.1,61.6,29.92,East,97,2.0,11.0,50,0.00,,,0.01,Wunderground v.1.15,2013-06-18 23:01:00,
2013-06-18 18:07:00,82.0,63.2,29.92,East,97,1.0,11.0,53,0.00,,,0.01,Wunderground v.1.15,2013-06-18 23:07:00,
2013-06-18 18:12:00,82.0,64.2,29.92,East,83,1.0,11.0,55,0.00,,,0.01,Wunderground v.1.15,2013-06-18 23:12:00,
2013-06-18 18:18:00,81.2,64.5,29.92,ESE,105,4.0,11.0,57,0.00,,,0.01,Wunderground v.1.15,2013-06-18 23:18:00,
2013-06-18 18:23:00,80.5,62.8,29.92,East,92,5.0,11.0,55,0.00,,,0.01,Wunderground v.1.15,2013-06-18 23:23:00,
2013-06-18 18:29:00,80.1,62.5,29.92,East,92,2.0,11.0,55,0.00,,,0.01,Wunderground v.1.15,2013-06-18 23:29:00,
2013-06-18 18:34:00,79.9,62.8,29.92,East,92,0.0,11.0,56,0.00,,,0.01,Wunderground v.1.15,2013-06-18 23:34:00,
2013-06-18 18:40:00,79.8,63.2,29.92,East,92,0.0,11.0,57,0.00,,,0.01,Wunderground v.1.15,2013-06-18 23:40:00,
2013-06-18 18:45:00,79.8,62.7,29.92,East,92,0.0,11.0,56,0.00,,,0.01,Wunderground v.1.15,2013-06-18 23:45:00,
2013-06-18 18:51:00,80.1,62.5,29.92,North,355,0.0,11.0,55,0.00,,,0.01,Wunderground v.1.15,2013-06-18 23:51:00,
2013-06-18 18:56:00,80.5,62.8,29.93,North,355,0.0,11.0,55,0.00,,,0.01,Wunderground v.1.15,2013-06-18 23:56:00,
2013-06-18 19:02:00,80.6,63.5,29.93,North,355,0.0,11.0,56,0.00,,,0.01,Wunderground v.1.15,2013-06-19 00:02:00,
2013-06-18 19:07:00,80.6,62.4,29.93,East,91,1.0,11.0,54,0.00,,,0.01,Wunderground v.1.15,2013-06-19 00:07:00,
2013-06-18 19:13:00,80.3,61.6,29.93,East,83,1.0,11.0,53,0.00,,,0.01,Wunderground v.1.15,2013-06-19 00:13:00,
2013-06-18 19:18:00,80.0,62.9,29.93,East,83,1.0,11.0,56,0.00,,,0.01,Wunderground v.1.15,2013-06-19 00:18:00,
2013-06-18 19:24:00,79.5,63.9,29.93,East,85,1.0,11.0,59,0.00,,,0.01,Wunderground v.1.15,2013-06-19 00:24:00,
2013-06-18 19:29:00,79.3,63.7,29.93,East,85,1.0,11.0,59,0.00,,,0.01,Wunderground v.1.15,2013-06-19 00:29:00,
2013-06-18 19:35:00,79.0,63.9,29.93,East,85,0.0,11.0,60,0.00,,,0.01,Wunderground v.1.15,2013-06-19 00:35:00,
2013-06-18 19:40:00,78.7,64.1,29.93,ESE,103,0.0,11.0,61,0.00,,,0.01,Wunderground v.1.15,2013-06-19 00:40:00,
2013-06-18 19:46:00,78.3,64.2,29.93,ESE,103,0.0,11.0,62,0.00,,,0.01,Wunderground v.1.15,2013-06-19 00:46:00,
2013-06-18 19:52:00,77.8,64.6,29.93,ESE,103,1.0,11.0,64,0.00,,,0.01,Wunderground v.1.15,2013-06-19 00:52:00,
2013-06-18 19:57:00,77.4,65.1,29.93,ESE,103,1.0,11.0,66,0.00,,,0.01,Wunderground v.1.15,2013-06-19 00:57:00,
2013-06-18 20:03:00,77.1,64.9,29.93,ESE,103,0.0,11.0,66,0.00,,,0.01,Wunderground v.1.15,2013-06-19 01:03:00,
2013-06-18 20:08:00,77.0,64.8,29.93,ESE,103,0.0,11.0,66,0.00,,,0.01,Wunderground v.1.15,2013-06-19 01:08:00,
2013-06-18 20:14:00,76.7,65.8,29.93,ESE,103,0.0,11.0,69,0.00,,,0.01,Wunderground v.1.15,2013-06-19 01:14:00,
2013-06-18 20:26:00,76.1,65.2,29.93,ESE,103,0.0,11.0,69,0.00,,,0.01,Wunderground v.1.15,2013-06-19 01:26:00,
2013-06-18 20:32:00,75.9,65.4,29.93,ESE,103,0.0,11.0,70,0.00,,,0.01,Wunderground v.1.15,2013-06-19 01:32:00,
2013-06-18 20:44:00,75.4,65.3,29.94,ESE,103,0.0,11.0,71,0.00,,,0.01,Wunderground v.1.15,2013-06-19 01:44:00,
2013-06-18 20:57:00,74.6,66.9,29.94,ESE,103,0.0,11.0,77,0.00,,,0.01,Wunderground v.1.15,2013-06-19 01:57:00,
2013-06-18 21:02:00,74.2,67.3,29.94,ESE,103,0.0,11.0,79,0.00,,,0.01,Wunderground v.1.15,2013-06-19 02:02:00,
2013-06-18 21:08:00,73.7,67.5,29.94,ESE,103,0.0,11.0,81,0.00,,,0.01,Wunderground v.1.15,2013-06-19 02:08:00,
2013-06-18 21:14:00,73.2,66.7,29.94,ESE,103,0.0,11.0,80,0.00,,,0.01,Wunderground v.1.15,2013-06-19 02:14:00,
2013-06-18 21:19:00,72.8,65.2,29.94,ESE,103,0.0,11.0,77,0.00,,,0.01,Wunderground v.1.15,2013-06-19 02:19:00,
2013-06-18 21:25:00,72.7,64.7,29.94,ESE,103,0.0,11.0,76,0.00,,,0.01,Wunderground v.1.15,2013-06-19 02:25:00,
2013-06-18 21:30:00,72.8,64.4,29.94,ESE,103,0.0,11.0,75,0.00,,,0.01,Wunderground v.1.15,2013-06-19 02:30:00,
2013-06-18 21:36:00,73.0,64.6,29.95,ESE,103,0.0,11.0,75,0.00,,,0.01,Wunderground v.1.15,2013-06-19 02:36:00,
2013-06-18 21:41:00,73.3,64.9,29.95,ESE,103,0.0,11.0,75,0.00,,,0.01,Wunderground v.1.15,2013-06-19 02:41:00,
2013-06-18 21:47:00,73.4,65.0,29.95,ESE,103,0.0,11.0,75,0.00,,,0.01,Wunderground v.1.15,2013-06-19 02:47:00,
2013-06-18 21:52:00,73.4,65.4,29.95,ESE,103,0.0,11.0,76,0.00,,,0.01,Wunderground v.1.15,2013-06-19 02:52:00,
2013-06-18 21:58:00,73.1,65.1,29.95,ESE,103,0.0,11.0,76,0.00,,,0.01,Wunderground v.1.15,2013-06-19 02:58:00,
2013-06-18 22:03:00,72.9,65.3,29.96,ESE,103,0.0,11.0,77,0.00,,,0.01,Wunderground v.1.15,2013-06-19 03:03:00,
2013-06-18 22:18:00,71.6,65.1,29.96,ESE,103,0.0,11.0,80,0.00,,,0.01,Wunderground v.1.15,2013-06-19 03:18:00,
2013-06-18 22:26:00,70.5,65.8,29.96,ESE,103,0.0,11.0,85,0.00,,,0.01,Wunderground v.1.15,2013-06-19 03:26:00,
2013-06-18 22:32:00,69.8,65.1,29.96,ESE,103,0.0,11.0,85,0.00,,,0.01,Wunderground v.1.15,2013-06-19 03:32:00,
2013-06-18 22:38:00,69.5,64.8,29.96,ESE,103,0.0,11.0,85,0.00,,,0.01,Wunderground v.1.15,2013-06-19 03:38:00,
2013-06-18 22:44:00,69.4,64.4,29.96,ESE,103,0.0,11.0,84,0.00,,,0.01,Wunderground v.1.15,2013-06-19 03:44:00,
2013-06-18 22:49:00,69.4,64.0,29.96,ESE,103,0.0,11.0,83,0.00,,,0.01,Wunderground v.1.15,2013-06-19 03:49:00,
2013-06-18 22:55:00,69.8,64.1,29.96,ESE,103,0.0,11.0,82,0.00,,,0.01,Wunderground v.1.15,2013-06-19 03:55:00,
2013-06-18 23:00:00,70.3,64.5,29.96,ESE,103,0.0,11.0,82,0.00,,,0.01,Wunderground v.1.15,2013-06-19 04:00:00,
2013-06-18 23:01:00,70.4,64.3,29.96,ESE,103,0.0,11.0,81,0.00,,,0.01,Wunderground v.1.15,2013-06-19 04:01:00,
2013-06-18 23:02:00,70.5,64.4,29.96,ESE,103,0.0,11.0,81,0.00,,,0.01,Wunderground v.1.15,2013-06-19 04:02:00,
2013-06-18 23:05:00,70.8,64.7,29.96,ESE,103,0.0,11.0,81,0.00,,,0.01,Wunderground v.1.15,2013-06-19 04:05:00,
2013-06-18 23:07:00,70.8,64.7,29.96,ESE,103,0.0,11.0,81,0.00,,,0.01,Wunderground v.1.15,2013-06-19 04:07:00,
2013-06-18 23:09:00,71.0,64.9,29.96,ESE,103,0.0,11.0,81,0.00,,,0.01,Wunderground v.1.15,2013-06-19 04:09:00,
2013-06-18 23:15:00,71.1,65.0,29.96,ESE,103,0.0,11.0,81,0.00,,,0.01,Wunderground v.1.15,2013-06-19 04:15:00,
2013-06-18 23:20:00,71.2,64.7,29.96,ESE,103,0.0,11.0,80,0.00,,,0.01,Wunderground v.1.15,2013-06-19 04:20:00,
2013-06-18 23:26:00,71.1,65.0,29.96,ESE,103,0.0,11.0,81,0.00,,,0.01,Wunderground v.1.15,2013-06-19 04:26:00,
2013-06-18 23:31:00,70.9,65.1,29.96,ESE,103,0.0,11.0,82,0.00,,,0.01,Wunderground v.1.15,2013-06-19 04:31:00,
2013-06-18 23:37:00,70.4,65.3,29.96,ESE,103,0.0,11.0,84,0.00,,,0.01,Wunderground v.1.15,2013-06-19 04:37:00,
2013-06-18 23:42:00,69.5,64.8,29.96,ESE,103,0.0,11.0,85,0.00,,,0.01,Wunderground v.1.15,2013-06-19 04:42:00,
2013-06-18 23:48:00,68.6,64.6,29.96,ESE,103,0.0,11.0,87,0.00,,,0.01,Wunderground v.1.15,2013-06-19 04:48:00,
2013-06-18 23:53:00,68.2,64.5,29.96,ESE,103,0.0,11.0,88,0.00,,,0.01,Wunderground v.1.15,2013-06-19 04:53:00,
2013-06-18 23:59:00,68.1,64.7,29.97,ESE,103,0.0,11.0,89,0.00,,,0.01,Wunderground v.1.15,2013-06-19 04:59:00,